WetterOnline ( https://www.wetteronline.de )

Wetter aktuell Ehringshausen

Aktuelles Wetter: Gießen (195m)

6-stündlich | Neueste Meldungen
Ortszeit Temperatur Wetter
Fr, 18.06. 20:00 29.3° C wolkenlos
Fr, 18.06. 14:00 31.7° C wolkenlos
Fr, 18.06. 8:00 20.3° C wolkenlos
Fr, 18.06. 2:00 20.7° C wolkenlos
Do, 17.06. 20:00 29.4° C wolkenlos
Do, 17.06. 14:00 30.5° C wolkenlos
Do, 17.06. 8:00 20.0° C wolkenlos
Do, 17.06. 2:00 17.2° C wolkenlos
Ortszeit Temperatur Wetter
Sa, 19.06. 0:30 23.2° C bewölkt
Sa, 19.06. 0:20 23.2° C bewölkt
Sa, 19.06. 0:10 23.0° C wolkig
Sa, 19.06. 0:00 22.4° C leicht bewölkt
Fr, 18.06. 23:50 22.4° C leicht bewölkt
Fr, 18.06. 23:40 21.7° C fast wolkenlos
Fr, 18.06. 23:30 22.1° C wolkenlos
Fr, 18.06. 23:00 23.3° C fast wolkenlos
Fr, 18.06. 22:30 23.4° C leicht bewölkt
Fr, 18.06. 22:00 25.7° C fast wolkenlos
Fr, 18.06. 21:30 27.7° C fast wolkenlos
Ortszeit Relative Feuchte Sichtweite
Fr, 18.06. 20:00 46% 35 km
Fr, 18.06. 14:00 38% 25 km
Fr, 18.06. 8:00 79% 28 km
Fr, 18.06. 2:00 75% 40 km
Do, 17.06. 20:00 44% 50 km
Do, 17.06. 14:00 41% 50 km
Do, 17.06. 8:00 77% 27 km
Do, 17.06. 2:00 86% 24 km
Ortszeit Relative Feuchte Sichtweite
Sa, 19.06. 0:30 75% 30 km
Sa, 19.06. 0:20 75% -
Sa, 19.06. 0:10 76% -
Sa, 19.06. 0:00 79% 30 km
Fr, 18.06. 23:50 79% -
Fr, 18.06. 23:40 82% -
Fr, 18.06. 23:30 83% 29 km
Fr, 18.06. 23:00 76% 30 km
Fr, 18.06. 22:30 79% 30 km
Fr, 18.06. 22:00 70% 30 km
Fr, 18.06. 21:30 60% 40 km
Ortszeit Niederschlagsmenge Niederschlagsart
Fr, 18.06. 20:00 0.0 l/m2 in 12 Std. -
Fr, 18.06. 14:00 0.0 l/m2 in 6 Std. -
Fr, 18.06. 8:00 0.0 l/m2 in 12 Std. -
Fr, 18.06. 2:00 0.0 l/m2 in 6 Std. -
Do, 17.06. 20:00 0.0 l/m2 in 12 Std. -
Do, 17.06. 14:00 0.0 l/m2 in 6 Std. -
Do, 17.06. 8:00 0.0 l/m2 in 12 Std. -
Do, 17.06. 2:00 0.0 l/m2 in 6 Std. -
Ortszeit Niederschlagsmenge Niederschlagsart
Sa, 19.06. 0:30 0.0 l/m2 in 1 Std. -
Sa, 19.06. 0:20 keine Meldung -
Sa, 19.06. 0:10 keine Meldung -
Sa, 19.06. 0:00 0.0 l/m2 in 1 Std. -
Fr, 18.06. 23:50 keine Meldung -
Fr, 18.06. 23:40 keine Meldung -
Fr, 18.06. 23:30 0.0 l/m2 in 1 Std. -
Fr, 18.06. 23:00 0.0 l/m2 in 1 Std. -
Fr, 18.06. 22:30 0.0 l/m2 in 1 Std. -
Fr, 18.06. 22:00 0.0 l/m2 in 1 Std. -
Fr, 18.06. 21:30 0.0 l/m2 in 1 Std. -
Ortszeit Stärke Spitze Richtung
km/h Bft. km/h Grad Sektor
Fr, 18.06. 20:00 7 2 29 210° SW
Fr, 18.06. 14:00 11 2 29 90° O
Fr, 18.06. 8:00 11 2 25 220° SW
Fr, 18.06. 2:00 7 2 13 30° NO
Do, 17.06. 20:00 11 2 32 120° SO
Do, 17.06. 14:00 15 3 28 140° SO
Do, 17.06. 8:00 7 2 14 40° NO
Do, 17.06. 2:00 9 2 11 50° NO
Ortszeit Stärke Spitze Richtung
km/h Bft. km/h Grad Sektor
Sa, 19.06. 0:30 4 1 7 50° NO
Sa, 19.06. 0:20 4 1 - 50° NO
Sa, 19.06. 0:10 2 1 - 50° NO
Sa, 19.06. 0:00 6 1 7 290° W
Fr, 18.06. 23:50 6 1 - 290° W
Fr, 18.06. 23:40 7 2 - 300° NW
Fr, 18.06. 23:30 2 1 7 130° SO
Fr, 18.06. 23:00 4 1 7 360° N
Fr, 18.06. 22:30 4 1 7 280° W
Fr, 18.06. 22:00 2 1 4 10° N
Fr, 18.06. 21:30 4 1 4 90° O
Ortszeit Untergrenze Bedeckung Gattung
total tief tief mittel hoch
Fr, 18.06. 20:00 - 0/8 0/8 - - -
Fr, 18.06. 14:00 - 0/8 0/8 - - -
Fr, 18.06. 8:00 - 0/8 0/8 - - -
Fr, 18.06. 2:00 - 0/8 0/8 - - -
Do, 17.06. 20:00 - 0/8 0/8 - - -
Do, 17.06. 14:00 - 0/8 0/8 - - -
Do, 17.06. 8:00 - 0/8 0/8 - - -
Do, 17.06. 2:00 - 0/8 0/8 - - -
Ortszeit Bedeckungsgrad in Achtel und Wolkenuntergrenze
Sa, 19.06. 0:30 4(2400m) 6(7200m) 8(7800m)
Sa, 19.06. 0:20 4(2400m) 6(7200m) 8(7800m)
Sa, 19.06. 0:10 1(2700m) 6(7200m) 8(8400m)
Sa, 19.06. 0:00 4(8400m) 5(9000m) 7(9000m)
Fr, 18.06. 23:50 4(8400m) 5(9000m)
Fr, 18.06. 23:40 2(9000m)
Fr, 18.06. 23:30 keine Wolken
Fr, 18.06. 23:00 1(3000m)
Fr, 18.06. 22:30 2(8400m) 4(9000m)
Fr, 18.06. 22:00 1(9000m) 2(10500m)
Fr, 18.06. 21:30 2(10500m) 4(10500m)
Ortszeit Luftdruck NN (hPa) Tendenz (hPa in 3 Std.)
Fr, 18.06. 20:00 1011 - 0,4
Fr, 18.06. 14:00 1012 - 0,9
Fr, 18.06. 8:00 1014 + 1,0
Fr, 18.06. 2:00 1013 + 0,5
Do, 17.06. 20:00 1011 - 0,2
Do, 17.06. 14:00 1011 - 0,7
Do, 17.06. 8:00 1013 + 0,5
Do, 17.06. 2:00 1013 - 0,2
Ortszeit Luftdruck NN (hPa) Tendenz (hPa in 3 Std.)
Sa, 19.06. 0:30 1012 + 0,8
Sa, 19.06. 0:20 1012 keine Meldung
Sa, 19.06. 0:10 1012 keine Meldung
Sa, 19.06. 0:00 1013 + 0,9
Fr, 18.06. 23:50 1013 keine Meldung
Fr, 18.06. 23:40 1013 keine Meldung
Fr, 18.06. 23:30 1013 + 1,0
Fr, 18.06. 23:00 1012 + 0,9
Fr, 18.06. 22:30 1012 + 0,6
Fr, 18.06. 22:00 1012 + 0,5
Fr, 18.06. 21:30 1011 + 0,3
Ortszeit Schneehöhe (cm)
Fr, 18.06. 20:00 -
Fr, 18.06. 14:00 -
Fr, 18.06. 8:00 -
Fr, 18.06. 2:00 -
Do, 17.06. 20:00 -
Do, 17.06. 14:00 -
Do, 17.06. 8:00 -
Do, 17.06. 2:00 -
Ortszeit Schneehöhe (cm)
Sa, 19.06. 0:30 -
Sa, 19.06. 0:20 -
Sa, 19.06. 0:10 -
Sa, 19.06. 0:00 -
Fr, 18.06. 23:50 -
Fr, 18.06. 23:40 -
Fr, 18.06. 23:30 -
Fr, 18.06. 23:00 -
Fr, 18.06. 22:30 -
Fr, 18.06. 22:00 -
Fr, 18.06. 21:30 -
Link zu dieser Seite / Seite empfehlen

Das Wetter in ...